Latest Weather Observations for Cape Moreton

IDQ60901

Issued at 5:51 pm EST Tuesday 20 November 2018 (issued every 10 minutes, with the page automatically refreshed every 10 minutes)

About weather observations | Map of Brisbane area stations | Latest observations for Brisbane area | Other Formats
Station Details ID: 040043 Name: CAPE MORETON LIGHTHOUSE Lat: -27.03 Lon: 153.47 Height: 99.9 m
Data from the previous 72 hours. | See also: Recent months at Cape Moreton
Date/Time
EST
Temp
°C
App
Temp
°C
Dew
Point
°C
Rel
Hum
%
Delta-T
°C
Wind Press
QNH
hPa
Press
MSL
hPa
Rain since
9am
mm
Dir  Spd
km/h
Gust
km/h
Spd
kts
Gust
kts
20/05:30pm 22.3 17.7 14.7 62 4.5 NNE 32 41 17 22 1011.9 1011.5 0.0
20/05:00pm 22.3 18.2 14.9 63 4.4 NNE 30 37 16 20 1012.1 1011.7 0.0
20/04:30pm 22.6 19.1 14.4 60 4.8 NNE 26 35 14 19 1012.3 1011.9 0.0
20/04:00pm 23.0 19.8 14.3 58 5.1 NNE 24 30 13 16 1012.7 1012.2 0.0
20/03:30pm 23.5 20.8 14.5 57 5.3 NNE 22 30 12 16 1012.9 1012.4 0.0
20/03:00pm 24.0 21.9 14.7 56 5.6 N 19 30 10 16 1013.2 1012.7 0.0
20/02:30pm 24.4 22.3 14.8 55 5.7 N 19 26 10 14 1013.4 1012.9 0.0
20/02:00pm 24.5 22.8 14.6 54 5.9 N 17 22 9 12 1013.9 1013.4 0.0
20/01:30pm 24.8 23.4 14.6 53 6.1 N 15 22 8 12 1014.4 1013.9 0.0
20/01:00pm 24.5 22.9 14.9 55 5.8 N 17 26 9 14 1014.9 1014.5 0.0
20/12:30pm 24.1 22.2 14.2 54 5.9 N 17 22 9 12 1015.3 1014.9 0.0
20/12:00pm 25.0 23.5 14.2 51 6.4 N 15 20 8 11 1015.6 1015.2 0.0
20/11:30am 24.0 22.6 13.5 52 6.1 N 13 19 7 10 1016.0 1015.6 0.0
20/11:00am 25.1 24.5 14.6 52 6.3 N 11 15 6 8 1016.5 1016.1 0.0
20/10:30am 24.7 23.6 14.2 52 6.2 N 13 17 7 9 1017.0 1016.6 0.0
20/10:00am 24.4 23.3 14.2 53 6.0 NNW 13 19 7 10 1017.6 1017.2 0.0
20/09:30am 23.9 23.6 14.3 55 5.7 NNW 9 15 5 8 1017.6 1017.2 0.0
20/09:00am 23.1 22.0 13.0 53 5.8 NNW 11 17 6 9 1017.8 1017.4 0.0
20/08:30am 23.6 23.0 13.5 53 5.9 N 9 13 5 7 1017.6 1017.2 0.0
20/08:00am 22.5 22.3 13.6 57 5.2 NNW 7 11 4 6 1018.0 1017.6 0.0
20/07:30am 22.3 21.8 12.8 55 5.4 N 7 9 4 5 1017.9 1017.5 0.0
20/07:00am 22.9 22.0 12.5 52 5.9 NE 9 13 5 7 1017.4 1017.0 0.0
20/06:30am 21.9 21.4 12.5 55 5.4 NNE 7 11 4 6 1017.1 1016.7 0.0
20/06:00am 21.8 21.3 12.6 56 5.2 NE 7 9 4 5 1016.9 1016.5 0.0
20/05:30am 21.4 20.7 13.1 59 4.8 NNE 9 13 5 7 1016.9 1016.5 0.0
20/05:00am 20.4 19.5 12.6 61 4.4 ENE 9 11 5 6 1016.7 1016.3 0.0
20/04:30am 20.2 19.8 12.9 63 4.2 E 7 11 4 6 1016.6 1016.2 0.0
20/04:00am 20.1 19.3 12.8 63 4.1 ESE 9 13 5 7 1016.3 1015.9 0.0
20/03:30am 20.3 19.9 13.0 63 4.2 E 7 11 4 6 1016.3 1015.9 0.0
20/03:00am 20.2 18.6 12.7 62 4.2 E 13 17 7 9 1016.4 1016.0 0.0
20/02:30am 20.4 18.0 12.6 61 4.4 ESE 17 20 9 11 1016.3 1015.9 0.0
20/02:00am 20.3 17.9 12.8 62 4.3 E 17 20 9 11 1016.4 1016.0 0.0
20/01:30am 20.4 17.8 13.1 63 4.2 ESE 19 24 10 13 1016.4 1016.0 0.0
20/01:00am 20.6 17.9 13.6 64 4.0 E 20 24 11 13 1016.8 1016.4 0.0
20/12:30am 21.0 18.6 13.9 64 4.1 E 19 22 10 12 1017.4 1017.0 0.0
20/12:00am 20.9 18.3 13.1 61 4.5 ESE 19 24 10 13 1017.6 1017.2 0.0
 
Date/Time
EST
Temp
°C
App
Temp
°C
Dew
Point
°C
Rel
Hum
%
Delta-T
°C
Wind Press
QNH
hPa
Press
MSL
hPa
Rain since
9am
mm
Dir  Spd
km/h
Gust
km/h
Spd
kts
Gust
kts
19/11:30pm 20.9 17.8 13.4 62 4.3 E 22 28 12 15 1017.8 1017.4 0.0
19/11:00pm 20.8 18.1 13.5 63 4.2 ESE 20 26 11 14 1018.2 1017.8 0.0
19/10:30pm 20.7 18.0 13.4 63 4.2 ESE 20 26 11 14 1018.2 1017.8 0.0
19/10:00pm 20.8 16.8 13.0 61 4.4 ESE 26 32 14 17 1018.2 1017.8 0.0
19/09:30pm 20.9 16.9 13.1 61 4.5 ESE 26 32 14 17 1018.3 1017.9 0.0
19/09:00pm 20.9 16.5 12.8 60 4.6 ESE 28 33 15 18 1018.4 1018.0 0.0
19/08:30pm 21.0 16.8 13.4 62 4.4 ESE 28 35 15 19 1018.3 1017.9 0.0
19/08:00pm 21.1 17.6 13.3 61 4.5 ESE 24 30 13 16 1018.1 1017.7 0.0
19/07:30pm 21.1 16.9 13.5 62 4.4 ESE 28 33 15 18 1017.9 1017.5 0.0
19/07:00pm 21.1 16.1 14.0 64 4.1 ESE 33 39 18 21 1017.7 1017.3 0.0
19/06:30pm 21.2 16.4 13.9 63 4.2 ESE 32 37 17 20 1017.3 1016.9 0.0
19/06:00pm 21.5 16.8 14.2 63 4.3 ESE 32 39 17 21 1017.4 1017.0 0.0
19/05:30pm 22.0 17.6 15.1 65 4.1 ESE 32 37 17 20 1017.0 1016.6 0.0
19/05:00pm 22.3 17.8 14.9 63 4.4 ESE 32 39 17 21 1016.7 1016.3 0.0
19/04:30pm 22.6 18.2 15.2 63 4.4 ESE 32 39 17 21 1016.5 1016.1 0.0
19/04:00pm 22.6 18.3 15.4 64 4.3 ESE 32 35 17 19 1016.7 1016.3 0.0
19/03:30pm 23.5 19.2 15.8 62 4.7 ESE 33 41 18 22 1016.6 1016.2 0.0
19/03:00pm 23.0 18.8 15.6 63 4.5 SE 32 37 17 20 1016.6 1016.2 0.0
19/02:30pm 23.4 18.8 16.0 63 4.5 ESE 35 41 19 22 1017.0 1016.6 0.0
19/02:00pm 22.8 18.5 15.9 65 4.2 SE 33 41 18 22 1017.2 1016.8 0.0
19/01:30pm 23.3 19.0 15.4 61 4.8 SE 32 39 17 21 1017.6 1017.2 0.0
19/01:00pm 23.8 18.1 15.3 59 5.1 SE 39 48 21 26 1017.9 1017.5 0.0
19/12:30pm 23.9 19.3 16.2 62 4.7 SE 35 44 19 24 1018.0 1017.6 0.0
19/12:00pm 24.1 20.0 15.9 60 5.0 SE 32 44 17 24 1018.3 1017.9 0.0
19/11:30am 25.2 22.0 15.2 54 6.0 SE 26 35 14 19 1018.7 1018.3 0.0
19/11:00am 24.7 21.6 15.6 57 5.5 SE 26 32 14 17 1018.8 1018.4 0.0
19/10:30am 24.6 21.2 14.7 54 5.9 SE 26 32 14 17 1019.2 1018.8 0.0
19/10:00am 24.4 20.9 14.5 54 5.9 SE 26 33 14 18 1019.7 1019.3 0.0
19/09:30am 24.3 19.8 13.8 52 6.2 SE 30 35 16 19 1019.7 1019.3 0.0
19/09:00am 24.1 18.6 13.6 52 6.1 SE 35 41 19 22 1019.4 1019.0 0.0
19/08:30am 23.8 18.1 13.1 51 6.2 SE 35 41 19 22 1019.4 1019.0 0.0
19/08:00am 23.5 18.7 14.5 57 5.3 SE 33 39 18 21 1019.4 1019.0 0.0
19/07:30am 22.9 16.6 13.4 55 5.5 SE 39 46 21 25 1019.3 1018.9 0.0
19/07:00am 22.7 16.8 13.5 56 5.3 SE 37 44 20 24 1019.2 1018.8 0.0
19/06:30am 22.4 17.1 15.3 64 4.3 ESE 37 44 20 24 1018.9 1018.5 0.0
19/06:00am 21.6 15.7 13.5 60 4.7 SE 37 48 20 26 1018.5 1018.1 0.0
19/05:30am 21.0 15.4 14.4 66 3.9 SE 37 44 20 24 1018.3 1017.9 0.0
19/05:00am 20.9 14.3 13.6 63 4.2 SE 41 48 22 26 1018.1 1017.7 0.0
19/04:30am 21.0 14.8 13.9 64 4.1 ESE 39 46 21 25 1017.9 1017.5 0.0
19/04:00am 20.9 14.6 13.6 63 4.2 SE 39 50 21 27 1017.6 1017.2 0.0
19/03:30am 20.9 15.4 14.8 68 3.6 ESE 37 46 20 25 1017.4 1017.0 0.0
19/03:00am 20.8 15.3 14.7 68 3.6 ESE 37 46 20 25 1017.2 1016.8 0.0
19/02:30am 20.8 15.4 14.0 65 4.0 SE 35 44 19 24 1017.5 1017.1 0.0
19/02:00am 20.9 14.6 13.6 63 4.2 SE 39 50 21 27 1017.3 1016.9 0.0
19/01:30am 21.0 14.6 14.4 66 3.9 ESE 41 50 22 27 1017.6 1017.2 0.0
19/01:00am 21.0 14.6 14.4 66 3.9 ESE 41 48 22 26 1018.0 1017.6 0.0
19/12:30am 21.0 14.4 14.9 68 3.6 ESE 43 50 23 27 1018.5 1018.1 0.0
19/12:00am 21.2 15.7 14.8 67 3.8 ESE 37 46 20 25 1019.0 1018.6 0.0
 
Date/Time
EST
Temp
°C
App
Temp
°C
Dew
Point
°C
Rel
Hum
%
Delta-T
°C
Wind Press
QNH
hPa
Press
MSL
hPa
Rain since
9am
mm
Dir  Spd
km/h
Gust
km/h
Spd
kts
Gust
kts
18/11:30pm 21.2 15.8 15.1 68 3.6 ESE 37 46 20 25 1019.1 1018.7 0.0
18/11:00pm 21.3 14.6 15.2 68 3.6 ESE 44 54 24 29 1019.2 1018.8 0.0
18/10:30pm 21.2 13.9 14.6 66 3.9 ESE 46 56 25 30 1019.2 1018.8 0.0
18/10:00pm 21.1 12.9 14.0 64 4.1 ESE 50 57 27 31 1018.9 1018.5 0.0
18/09:30pm 21.3 13.1 15.2 68 3.6 ESE 52 59 28 32 1018.6 1018.2 0.0
18/09:00pm 21.5 14.2 15.6 69 3.5 ESE 48 59 26 32 1018.8 1018.4 0.0
18/08:30pm 21.6 14.1 15.9 70 3.4 ESE 50 57 27 31 1018.5 1018.1 0.0
18/08:00pm 21.7 14.6 16.0 70 3.4 ESE 48 57 26 31 1018.2 1017.8 0.0
18/07:30pm 21.9 15.7 16.4 71 3.3 ESE 44 54 24 29 1018.2 1017.8 0.0
18/07:00pm 21.8 14.0 16.1 70 3.4 ESE 52 61 28 33 1017.5 1017.1 0.0
18/06:30pm 21.8 15.6 16.5 72 3.2 ESE 44 54 24 29 1017.5 1017.1 0.0
18/06:00pm 21.8 15.1 16.1 70 3.4 ESE 46 54 25 29 1017.3 1016.9 0.0
18/05:30pm 22.1 15.4 16.1 69 3.6 ESE 46 57 25 31 1017.2 1016.8 0.0
18/05:00pm 22.4 15.3 16.0 67 3.9 ESE 48 57 26 31 1016.7 1016.3 0.0
18/04:30pm 22.6 16.0 16.4 68 3.8 ESE 46 56 25 30 1016.5 1016.1 0.0
18/04:00pm 22.6 16.5 16.2 67 3.9 ESE 43 52 23 28 1016.8 1016.4 0.0
18/03:30pm 23.2 17.0 16.3 65 4.2 SE 44 54 24 29 1017.0 1016.6 0.0
18/03:00pm 23.4 17.8 17.4 69 3.7 ESE 43 50 23 27 1017.4 1017.0 0.0
18/02:30pm 22.9 17.2 17.1 70 3.6 SE 43 52 23 28 1017.3 1016.9 0.0
18/02:00pm 23.8 17.5 17.1 66 4.1 SE 46 54 25 29 1017.2 1016.8 0.0
18/01:30pm 23.3 16.7 17.3 69 3.7 SE 48 57 26 31 1017.2 1016.8 0.0
18/01:00pm 24.0 17.2 17.7 68 3.9 SE 50 57 27 31 1017.3 1016.9 0.0
18/12:30pm 23.5 17.5 17.9 71 3.5 SE 46 56 25 30 1017.7 1017.3 0.0
18/12:00pm 21.6 16.8 19.3 87 1.5 ESE 43 52 23 28 1018.1 1017.7 0.0
18/11:30am 22.7 16.5 19.1 80 2.3 ESE 50 57 27 31 1017.9 1017.5 0.0
18/11:00am 23.4 18.0 20.0 81 2.2 ESE 48 59 26 32 1017.9 1017.5 0.0
18/10:30am 22.2 16.0 19.0 82 2.0 SE 50 59 27 32 1017.9 1017.5 0.0
18/10:00am 23.0 17.3 19.4 80 2.3 SE 48 61 26 33 1017.9 1017.5 0.0
18/09:30am 23.5 18.8 19.4 78 2.6 SE 43 52 23 28 1018.1 1017.7 0.0
18/09:00am 22.8 17.9 19.0 79 2.4 SE 43 54 23 29 1017.9 1017.5 5.6
18/08:30am 23.3 18.5 19.2 78 2.6 SE 43 52 23 28 1017.7 1017.3 5.6
18/08:00am 22.9 18.0 19.1 79 2.4 SE 43 50 23 27 1017.3 1016.9 5.6
18/07:30am 22.4 17.4 20.1 87 1.5 SE 46 56 25 30 1016.9 1016.5 5.6
18/07:00am 22.8 18.2 19.6 82 2.1 SE 43 50 23 27 1016.8 1016.4 5.6
18/06:30am 22.4 17.9 19.9 86 1.6 SE 43 57 23 31 1016.3 1015.9 5.6
18/06:00am 21.6 18.3 19.2 86 1.5 SSE 35 43 19 23 1016.2 1015.8 5.6
18/05:30am 20.6 18.2 19.9 96 0.4 S 32 44 17 24 1016.0 1015.6 5.6
18/05:00am 20.6 17.2 19.8 95 0.5 SSE 37 50 20 27 1015.5 1015.1 5.6
18/04:30am 20.5 17.7 19.5 94 0.6 S 33 43 18 23 1015.2 1014.8 5.4
18/04:00am 20.6 18.3 19.4 93 0.8 S 30 41 16 22 1015.2 1014.8 5.4
18/03:30am 20.4 17.8 19.4 94 0.6 SSE 32 46 17 25 1015.0 1014.6 5.4
18/03:00am 20.5 18.5 20.0 97 0.3 SSE 30 41 16 22 1015.0 1014.6 5.4
18/02:30am 20.6 20.0 20.4 99 0.1 S 24 35 13 19 1015.4 1015.0 5.4
18/02:00am 20.1 19.7 19.4 96 0.4 SSW 20 28 11 15 1015.4 1015.0 5.4
18/01:30am 20.3 20.0 18.2 88 1.3 SSW 17 20 9 11 1015.5 1015.1 5.4
18/01:00am 19.8 20.5 17.9 89 1.2 SSW 11 15 6 8 1015.0 1014.6 5.4
18/12:30am 20.4 22.2 18.7 90 1.1 E 7 11 4 6 1015.2 1014.8 5.4
18/12:00am 20.5 21.0 18.3 87 1.4 NNE 13 17 7 9 1015.5 1015.1 5.4
 
Date/Time
EST
Temp
°C
App
Temp
°C
Dew
Point
°C
Rel
Hum
%
Delta-T
°C
Wind Press
QNH
hPa
Press
MSL
hPa
Rain since
9am
mm
Dir  Spd
km/h
Gust
km/h
Spd
kts
Gust
kts
17/11:30pm 20.8 18.4 19.1 90 1.1 ENE 30 33 16 18 1015.8 1015.4 5.4
17/11:00pm 20.3 19.4 19.8 97 0.3 E 24 32 13 17 1016.2 1015.8 5.4
17/10:30pm 20.0 18.3 19.8 99 0.1 E 28 33 15 18 1016.2 1015.8 5.4
17/10:00pm 19.3 17.0 19.3 100 0.0 E 30 37 16 20 1016.5 1016.1 5.4
17/09:30pm 19.4 15.4 19.4 100 0.0 ESE 39 46 21 25 1016.6 1016.2 5.4
17/09:00pm 18.7 15.6 18.5 99 0.1 ESE 32 43 17 23 1016.9 1016.5 5.4
17/08:49pm 18.3 13.0 18.1 99 0.1 SE 43 61 23 33 1016.6 1016.2 5.2
17/08:39pm 18.5 10.8 18.3 99 0.1 SSE 56 72 30 39 1016.8 1016.4 4.8
17/08:30pm 19.0 9.1 18.8 99 0.1 SE 69 87 37 47 1016.0 1015.6 3.8
17/08:21pm 19.8 14.9 19.1 96 0.4 SSE 43 83 23 45 1015.6 1015.2 3.6
17/08:20pm 20.0 16.4 19.3 96 0.4 S 37 74 20 40 1016.0 1015.6 3.6
17/08:17pm 21.1 18.9 20.4 96 0.5 S 32 52 17 28 1016.5 1016.1 3.4
17/08:00pm 21.9 22.3 20.9 94 0.7 SSW 20 33 11 18 1016.0 1015.6 3.0
17/07:52pm 22.2 23.6 21.0 93 0.8 NNW 15 26 8 14 1015.4 1015.0 3.0
17/07:30pm 22.0 19.1 20.8 93 0.8 N 37 50 20 27 1013.5 1013.0 3.0
17/07:00pm 22.2 20.4 21.2 94 0.7 NNW 32 43 17 23 1013.1 1012.6 2.6
17/06:30pm 22.6 21.0 20.7 89 1.2 N 30 43 16 23 1013.1 1012.6 1.2
17/06:00pm 22.4 19.7 20.5 89 1.2 NNE 35 43 19 23 1012.5 1012.1 1.0
17/05:54pm 22.3 20.9 20.4 89 1.2 NNE 28 39 15 21 1013.0 1012.5 0.8

Latest Capital City Observations: Canberra | Sydney | Melbourne | Brisbane | Adelaide | Perth | Hobart | Darwin

Other Formats:

Comma delimited format used in spreadsheet applications
http://www.bom.gov.au/fwo/IDQ60901/IDQ60901.94594.axf

JavaScript Object Notation format (JSON) in row-major order
http://www.bom.gov.au/fwo/IDQ60901/IDQ60901.94594.json